Time;durP1;ratioP1;P1;durP2;ratioP2;P2;SDS_P1;SDS_P2;PMS_P1;PMS_P2;Temp;Humidity;BMP_temperature;BMP_pressure;BME280_temperature;BME280_humidity;BME280_pressure;Samples;Min_cycle;Max_cycle;Signal;HPM_P1;HPM_P2
2022/03/28 00:01:31;;;;;;;37.28;12.52;;;;;;;7.14;100.00;102366.97;4978823;28;20490;-77
2022/03/28 00:03:57;;;;;;;40.10;13.70;;;;;;;7.08;100.00;102366.31;4974804;28;20105;-77
2022/03/28 00:06:23;;;;;;;39.42;12.45;;;;;;;6.97;100.00;102366.78;4976903;28;20170;-77
2022/03/28 00:08:49;;;;;;;31.50;12.00;;;;;;;7.03;100.00;102368.34;4981046;28;20102;-77
2022/03/28 00:11:16;;;;;;;30.05;11.40;;;;;;;7.01;100.00;102357.53;4975745;28;20229;-77
2022/03/28 00:13:41;;;;;;;34.20;13.15;;;;;;;6.95;100.00;102350.50;4977988;28;20026;-77
2022/03/28 00:16:07;;;;;;;35.97;12.00;;;;;;;6.79;100.00;102349.34;4983212;28;20081;-77
2022/03/28 00:18:32;;;;;;;36.15;10.85;;;;;;;6.62;100.00;102347.25;4980846;28;20038;-76
2022/03/28 00:20:58;;;;;;;40.42;11.88;;;;;;;6.61;100.00;102348.22;4986242;28;20051;-77
2022/03/28 00:23:24;;;;;;;29.73;11.45;;;;;;;6.55;100.00;102345.72;4980468;28;20038;-77
2022/03/28 00:25:50;;;;;;;30.67;11.80;;;;;;;6.67;100.00;102339.78;4976949;28;20046;-76
2022/03/28 00:28:15;;;;;;;31.60;12.23;;;;;;;6.56;100.00;102329.34;4992736;28;20392;-77
2022/03/28 00:30:41;;;;;;;40.63;11.95;;;;;;;6.75;100.00;102331.31;4993443;28;20061;-77
2022/03/28 00:33:07;;;;;;;32.85;11.57;;;;;;;6.71;100.00;102332.41;4992995;28;20038;-77
2022/03/28 00:35:35;;;;;;;33.45;11.82;;;;;;;6.64;100.00;102329.03;4979449;28;20032;-77
2022/03/28 00:38:02;;;;;;;31.23;12.25;;;;;;;6.63;100.00;102325.41;4987374;28;22095;-77
2022/03/28 00:40:31;;;;;;;30.92;12.35;;;;;;;6.63;100.00;102310.94;4982199;28;20038;-76
2022/03/28 00:43:03;;;;;;;41.67;11.75;;;;;;;6.64;100.00;102315.44;4976284;28;20100;-76
2022/03/28 00:45:32;;;;;;;34.25;13.68;;;;;;;6.51;100.00;102303.22;4982732;28;20033;-77
2022/03/28 00:47:58;;;;;;;36.28;12.95;;;;;;;6.39;100.00;102294.59;4969805;28;20038;-77
2022/03/28 00:50:24;;;;;;;38.38;12.38;;;;;;;6.29;100.00;102300.47;4997834;28;20113;-77
2022/03/28 00:52:50;;;;;;;33.83;12.50;;;;;;;6.23;100.00;102294.31;5004881;28;20101;-77
2022/03/28 00:55:15;;;;;;;46.75;12.63;;;;;;;6.12;100.00;102287.50;4983123;28;20046;-77
2022/03/28 00:57:42;;;;;;;33.40;12.25;;;;;;;6.06;100.00;102292.19;4987491;28;20053;-78
2022/03/28 01:00:11;;;;;;;37.22;12.68;;;;;;;6.12;100.00;102290.22;4970183;28;20439;-77
2022/03/28 01:02:38;;;;;;;37.60;12.55;;;;;;;6.21;100.00;102295.28;4996602;28;20537;-77
2022/03/28 01:05:04;;;;;;;29.08;11.40;;;;;;;6.14;100.00;102291.91;4972972;28;20037;-77
2022/03/28 01:07:29;;;;;;;31.73;11.48;;;;;;;6.29;100.00;102286.84;4977068;28;20038;-77
2022/03/28 01:09:59;;;;;;;36.15;12.43;;;;;;;6.29;100.00;102285.00;4985613;28;20046;-77
2022/03/28 01:12:31;;;;;;;38.20;12.73;;;;;;;6.23;100.00;102285.25;4966705;28;20046;-77
2022/03/28 01:14:56;;;;;;;34.85;11.88;;;;;;;6.15;100.00;102282.81;5009459;28;20060;-77
2022/03/28 01:20:07;;;;;;;39.38;12.77;;;;;;;6.14;100.00;102275.59;4996886;28;20085;-77
2022/03/28 01:22:32;;;;;;;37.70;12.52;;;;;;;6.11;100.00;102273.00;4987029;28;20109;-77
2022/03/28 01:25:00;;;;;;;38.53;13.02;;;;;;;6.11;100.00;102277.56;4982276;28;20084;-77
2022/03/28 01:27:25;;;;;;;45.78;13.50;;;;;;;6.16;100.00;102270.09;4999873;28;20042;-77
2022/03/28 01:29:51;;;;;;;34.17;12.32;;;;;;;6.15;100.00;102273.75;4994176;28;20385;-77
2022/03/28 01:32:16;;;;;;;41.72;14.70;;;;;;;6.20;100.00;102274.50;5005353;28;20398;-77
2022/03/28 01:34:42;;;;;;;36.33;13.48;;;;;;;6.20;100.00;102269.06;4999478;28;20050;-77
2022/03/28 01:37:07;;;;;;;36.92;13.50;;;;;;;6.20;100.00;102260.91;4982729;28;20389;-77
2022/03/28 01:39:33;;;;;;;40.40;14.00;;;;;;;6.24;100.00;102265.28;4972107;28;20046;-77
2022/03/28 01:41:59;;;;;;;37.03;13.07;;;;;;;6.23;100.00;102256.22;4995761;28;20033;-78
2022/03/28 01:44:25;;;;;;;40.45;14.23;;;;;;;6.27;100.00;102256.13;5003789;28;20034;-77
2022/03/28 01:46:50;;;;;;;41.70;13.52;;;;;;;6.28;100.00;102256.06;4970091;28;20092;-77
2022/03/28 01:49:18;;;;;;;38.65;13.63;;;;;;;6.29;100.00;102254.22;4989322;28;20038;-77
2022/03/28 01:51:46;;;;;;;36.28;13.18;;;;;;;6.29;100.00;102246.06;4988543;28;20157;-77
2022/03/28 01:54:12;;;;;;;37.75;13.57;;;;;;;6.31;100.00;102257.75;5003199;28;20080;-77
2022/03/28 01:56:38;;;;;;;41.75;13.73;;;;;;;6.33;100.00;102248.59;5004608;28;20432;-77
2022/03/28 01:59:05;;;;;;;36.25;12.60;;;;;;;6.21;100.00;102247.22;4998819;28;20033;-77
2022/03/28 02:01:31;;;;;;;43.63;13.00;;;;;;;6.04;100.00;102247.88;4996200;28;20041;-77
2022/03/28 02:03:57;;;;;;;37.92;13.07;;;;;;;5.96;100.00;102243.66;5004734;28;20034;-77
2022/03/28 02:06:23;;;;;;;45.22;14.50;;;;;;;5.87;100.00;102243.03;5006162;28;20087;-77
2022/03/28 02:08:48;;;;;;;38.70;13.88;;;;;;;5.86;100.00;102246.69;4990118;28;20027;-77
2022/03/28 02:11:14;;;;;;;43.78;14.27;;;;;;;5.98;100.00;102242.66;4993116;28;20037;-77
2022/03/28 02:13:39;;;;;;;36.75;13.38;;;;;;;5.95;100.00;102236.41;4966765;28;20490;-77
2022/03/28 02:16:05;;;;;;;43.13;13.93;;;;;;;5.92;100.00;102226.56;4984657;28;20038;-77
2022/03/28 02:18:31;;;;;;;43.42;13.88;;;;;;;5.95;100.00;102222.81;4995058;28;20046;-77
2022/03/28 02:20:56;;;;;;;40.00;14.07;;;;;;;6.02;100.00;102224.44;4998798;28;20113;-77
2022/03/28 02:23:22;;;;;;;41.05;14.23;;;;;;;5.98;100.00;102223.63;5005714;28;20117;-77
2022/03/28 02:25:48;;;;;;;34.33;12.75;;;;;;;5.96;100.00;102225.53;4995931;28;20049;-77
2022/03/28 02:28:13;;;;;;;42.10;13.55;;;;;;;5.98;100.00;102230.91;4974283;28;20485;-77
2022/03/28 02:30:39;;;;;;;41.45;12.70;;;;;;;6.01;100.00;102223.50;4999817;28;20034;-77
2022/03/28 02:33:06;;;;;;;36.53;12.98;;;;;;;5.89;100.00;102223.97;4995802;28;20466;-77
2022/03/28 02:35:31;;;;;;;37.65;12.85;;;;;;;5.89;100.00;102232.13;4984168;28;20044;-77
2022/03/28 02:38:01;;;;;;;41.95;13.02;;;;;;;5.76;100.00;102230.81;4995253;28;20035;-77
2022/03/28 02:40:28;;;;;;;35.85;13.20;;;;;;;5.77;100.00;102221.69;4985257;28;20036;-77
2022/03/28 02:42:57;;;;;;;47.67;14.88;;;;;;;5.95;100.00;102226.47;4981559;28;20030;-77
2022/03/28 02:45:23;;;;;;;41.25;13.77;;;;;;;5.98;100.00;102222.75;4997585;28;20022;-77
2022/03/28 02:47:48;;;;;;;39.50;12.57;;;;;;;5.95;100.00;102215.59;4982937;28;20038;-77
2022/03/28 02:50:14;;;;;;;43.17;13.43;;;;;;;5.94;100.00;102212.91;4978161;28;20022;-77
2022/03/28 02:52:39;;;;;;;39.15;12.80;;;;;;;5.98;100.00;102210.03;4986522;28;20034;-77
2022/03/28 02:55:05;;;;;;;40.78;13.77;;;;;;;5.96;100.00;102200.16;4974930;28;20084;-78
2022/03/28 02:57:30;;;;;;;39.60;14.15;;;;;;;5.99;100.00;102200.94;4962170;28;20046;-78
2022/03/28 02:59:56;;;;;;;46.30;13.95;;;;;;;5.82;100.00;102187.06;4979608;28;20030;-78
2022/03/28 03:02:21;;;;;;;46.00;13.10;;;;;;;5.88;100.00;102192.28;4985951;28;20045;-77
2022/03/28 03:04:46;;;;;;;42.15;13.07;;;;;;;5.84;100.00;102194.22;4996424;28;20054;-77
2022/03/28 03:07:12;;;;;;;44.97;12.85;;;;;;;5.85;100.00;102186.94;5001988;28;20536;-77
2022/03/28 03:09:37;;;;;;;46.88;13.40;;;;;;;5.68;100.00;102183.03;4989574;28;20026;-77
2022/03/28 03:12:03;;;;;;;36.70;13.30;;;;;;;5.53;100.00;102181.78;4993627;28;20038;-78
2022/03/28 03:14:29;;;;;;;46.33;14.00;;;;;;;5.65;100.00;102180.44;4980117;28;20034;-77
2022/03/28 03:16:54;;;;;;;45.67;13.93;;;;;;;5.59;100.00;102180.69;5004890;28;20481;-77
2022/03/28 03:19:20;;;;;;;38.38;13.60;;;;;;;5.32;100.00;102168.97;4992794;28;20553;-77
2022/03/28 03:21:48;;;;;;;38.92;13.68;;;;;;;5.26;100.00;102175.53;4971486;28;20053;-78
2022/03/28 03:24:14;;;;;;;40.50;12.93;;;;;;;5.27;100.00;102169.13;4978281;28;20042;-78
2022/03/28 03:26:40;;;;;;;49.22;14.35;;;;;;;5.35;100.00;102177.03;5003736;28;20034;-77
2022/03/28 03:29:05;;;;;;;33.38;12.40;;;;;;;5.37;100.00;102183.28;4989674;28;20164;-77
2022/03/28 03:31:31;;;;;;;35.13;12.35;;;;;;;5.27;100.00;102180.00;4998845;28;20042;-78
2022/03/28 03:33:56;;;;;;;37.40;12.43;;;;;;;5.45;100.00;102169.44;5004517;28;20379;-78
2022/03/28 03:36:22;;;;;;;42.17;12.88;;;;;;;5.31;100.00;102157.25;4987426;28;20474;-76
2022/03/28 03:38:47;;;;;;;37.90;13.13;;;;;;;5.34;100.00;102170.72;4983314;28;20076;-76
2022/03/28 03:41:13;;;;;;;36.05;12.38;;;;;;;5.41;100.00;102162.31;4977047;28;20474;-78
2022/03/28 03:43:38;;;;;;;49.20;13.50;;;;;;;5.36;100.00;102169.75;4999678;28;20034;-77
2022/03/28 03:46:04;;;;;;;46.85;14.63;;;;;;;5.31;100.00;102167.19;4990585;28;20084;-77
2022/03/28 03:48:29;;;;;;;37.90;13.23;;;;;;;5.23;100.00;102163.88;4984503;28;20362;-77
2022/03/28 03:50:55;;;;;;;43.28;13.10;;;;;;;5.31;100.00;102162.66;4991453;28;20087;-77
2022/03/28 03:53:21;;;;;;;39.35;14.45;;;;;;;5.24;100.00;102166.53;4990748;28;20026;-78
2022/03/28 03:55:47;;;;;;;42.63;14.90;;;;;;;5.30;100.00;102157.28;5006766;28;20474;-77
2022/03/28 03:58:13;;;;;;;39.45;13.43;;;;;;;5.33;100.00;102147.19;4984829;28;20032;-77
2022/03/28 04:00:40;;;;;;;48.35;14.85;;;;;;;5.37;100.00;102150.69;4996651;28;20034;-77
2022/03/28 04:03:05;;;;;;;45.67;15.25;;;;;;;5.24;100.00;102146.66;4989874;28;20030;-77
2022/03/28 04:05:32;;;;;;;33.63;12.90;;;;;;;5.18;100.00;102150.44;4978330;28;20030;-76
2022/03/28 04:07:59;;;;;;;39.22;14.07;;;;;;;5.26;100.00;102144.75;5003641;28;20458;-77
2022/03/28 04:10:24;;;;;;;41.78;14.38;;;;;;;5.25;100.00;102143.88;4968453;28;20489;-77
2022/03/28 04:12:50;;;;;;;46.88;15.45;;;;;;;5.22;100.00;102135.84;5004410;28;20040;-77
2022/03/28 04:15:18;;;;;;;48.63;16.45;;;;;;;5.29;100.00;102140.09;4990478;28;20080;-78
2022/03/28 04:17:44;;;;;;;44.97;14.65;;;;;;;5.15;100.00;102123.44;4979742;28;20726;-77
2022/03/28 04:20:15;;;;;;;44.75;15.10;;;;;;;5.13;100.00;102134.34;4996354;28;20425;-77
2022/03/28 04:22:42;;;;;;;46.28;14.57;;;;;;;5.02;100.00;102136.56;5002448;28;20076;-77
2022/03/28 04:25:09;;;;;;;45.85;14.30;;;;;;;5.12;100.00;102137.13;4995871;28;20282;-77
2022/03/28 04:27:36;;;;;;;42.15;14.65;;;;;;;5.03;100.00;102130.16;4996463;28;20092;-77
2022/03/28 04:30:07;;;;;;;42.25;14.77;;;;;;;5.03;100.00;102134.72;4991809;28;20454;-76
2022/03/28 04:32:34;;;;;;;40.13;14.52;;;;;;;5.05;100.00;102128.31;4987336;28;20072;-77
2022/03/28 04:35:00;;;;;;;46.92;13.90;;;;;;;5.00;100.00;102130.31;4979943;28;20042;-77
2022/03/28 04:37:25;;;;;;;46.13;15.05;;;;;;;4.84;100.00;102124.50;4997873;28;20496;-80
2022/03/28 04:39:50;;;;;;;41.40;14.38;;;;;;;4.76;100.00;102122.06;4970357;28;20056;-78
2022/03/28 04:42:16;;;;;;;46.42;15.23;;;;;;;4.77;100.00;102121.13;5001697;28;20038;-78
2022/03/28 04:44:41;;;;;;;40.15;14.32;;;;;;;4.94;100.00;102123.25;5002599;28;20468;-77
2022/03/28 04:47:08;;;;;;;51.33;14.15;;;;;;;4.82;100.00;102123.69;4996904;28;20030;-78
2022/03/28 04:49:33;;;;;;;64.57;15.73;;;;;;;4.74;100.00;102128.50;4999958;28;20034;-78
2022/03/28 04:51:59;;;;;;;44.05;15.18;;;;;;;4.80;100.00;102125.53;4997516;28;20045;-78
2022/03/28 04:54:24;;;;;;;60.22;17.17;;;;;;;4.81;100.00;102124.63;4994837;28;20057;-77
2022/03/28 04:56:50;;;;;;;52.25;16.65;;;;;;;4.90;100.00;102127.03;4986449;28;20026;-77
2022/03/28 04:59:15;;;;;;;45.00;15.68;;;;;;;4.81;100.00;102127.34;5000338;28;20038;-77
2022/03/28 05:01:41;;;;;;;47.70;15.40;;;;;;;4.82;100.00;102125.50;5002706;28;20065;-78
2022/03/28 05:04:06;;;;;;;49.72;15.25;;;;;;;4.65;100.00;102136.94;4987857;28;20032;-78
2022/03/28 05:06:32;;;;;;;44.75;14.40;;;;;;;4.59;100.00;102140.72;4964855;28;20039;-78
2022/03/28 05:08:57;;;;;;;42.75;15.57;;;;;;;4.56;100.00;102130.88;4983531;28;20038;-78
2022/03/28 05:11:23;;;;;;;47.22;15.02;;;;;;;4.71;100.00;102134.03;5004403;28;20034;-78
2022/03/28 05:13:50;;;;;;;55.10;16.35;;;;;;;4.82;100.00;102129.13;4981588;28;20045;-78
2022/03/28 05:16:16;;;;;;;41.55;13.65;;;;;;;4.82;100.00;102137.25;5006215;28;20037;-78
2022/03/28 05:18:41;;;;;;;48.20;14.75;;;;;;;4.81;100.00;102127.34;4989780;28;20046;-78
2022/03/28 05:21:07;;;;;;;40.30;14.57;;;;;;;4.78;100.00;102122.00;4980395;28;20046;-78
2022/03/28 05:23:32;;;;;;;49.58;13.77;;;;;;;4.80;100.00;102130.97;4983336;28;20113;-78
2022/03/28 05:25:58;;;;;;;54.50;15.13;;;;;;;4.81;100.00;102126.44;4985651;28;20125;-78
2022/03/28 05:28:23;;;;;;;44.88;14.88;;;;;;;4.71;100.00;102125.88;4982792;28;20095;-78
2022/03/28 05:30:49;;;;;;;44.20;13.70;;;;;;;4.67;100.00;102119.66;4988844;28;20027;-78
2022/03/28 05:33:14;;;;;;;51.58;14.57;;;;;;;4.73;100.00;102130.28;4991679;28;20027;-78
2022/03/28 05:35:43;;;;;;;44.25;13.48;;;;;;;4.68;100.00;102121.44;4971189;28;20085;-78
2022/03/28 05:38:09;;;;;;;54.35;14.77;;;;;;;4.72;100.00;102131.25;4975745;28;20162;-78
2022/03/28 05:40:34;;;;;;;37.85;14.00;;;;;;;4.68;100.00;102132.28;4982624;28;20044;-78
2022/03/28 05:43:00;;;;;;;47.78;15.52;;;;;;;4.57;100.00;102124.50;4984227;28;20046;-78
2022/03/28 05:45:26;;;;;;;46.40;14.55;;;;;;;4.75;100.00;102125.69;4991015;28;20031;-78
2022/03/28 05:47:51;;;;;;;41.20;13.23;;;;;;;4.77;100.00;102137.41;4976374;28;20066;-78
2022/03/28 05:50:17;;;;;;;41.95;12.90;;;;;;;4.74;100.00;102126.66;4988355;28;20031;-77
2022/03/28 05:52:42;;;;;;;46.92;13.52;;;;;;;4.74;100.00;102125.78;4982298;28;20085;-78
2022/03/28 05:55:09;;;;;;;51.58;14.40;;;;;;;4.75;100.00;102128.41;4979243;28;20085;-79
2022/03/28 05:57:34;;;;;;;41.22;12.63;;;;;;;4.76;100.00;102126.59;4994761;28;20090;-79
2022/03/28 06:00:00;;;;;;;46.90;13.07;;;;;;;4.81;100.00;102121.03;4983251;28;20117;-79
2022/03/28 06:02:25;;;;;;;35.47;12.07;;;;;;;4.99;100.00;102125.81;4969381;28;20101;-79
2022/03/28 06:04:51;;;;;;;42.97;13.30;;;;;;;4.97;100.00;102123.16;4982799;28;20034;-79
2022/03/28 06:07:17;;;;;;;37.58;13.70;;;;;;;4.97;100.00;102128.56;4992426;28;20038;-79
2022/03/28 06:09:42;;;;;;;40.10;12.52;;;;;;;5.05;100.00;102116.53;4984054;28;20056;-79
2022/03/28 06:12:10;;;;;;;49.90;14.20;;;;;;;5.18;100.00;102120.59;4984681;28;20114;-79
2022/03/28 06:14:36;;;;;;;64.07;13.77;;;;;;;5.14;100.00;102114.38;4990337;28;20070;-78
2022/03/28 06:17:02;;;;;;;47.40;13.30;;;;;;;5.24;100.00;102111.34;4986677;28;20043;-78
2022/03/28 06:19:27;;;;;;;45.97;13.75;;;;;;;5.32;100.00;102114.66;4982760;28;20140;-79
2022/03/28 06:21:53;;;;;;;38.53;12.20;;;;;;;5.41;100.00;102116.16;5000428;28;20046;-79
2022/03/28 06:24:18;;;;;;;48.75;12.85;;;;;;;5.50;100.00;102115.81;4993134;28;20482;-79
2022/03/28 06:26:43;;;;;;;45.58;12.40;;;;;;;5.59;100.00;102111.84;4989356;28;20047;-79
2022/03/28 06:29:10;;;;;;;43.65;13.88;;;;;;;5.86;100.00;102110.78;4978425;28;20450;-79
2022/03/28 06:31:36;;;;;;;41.38;12.38;;;;;;;6.03;100.00;102114.72;4989203;28;20517;-79
2022/03/28 06:34:02;;;;;;;47.00;13.32;;;;;;;6.07;100.00;102111.81;4982201;28;20043;-79
2022/03/28 06:36:29;;;;;;;48.60;12.55;;;;;;;6.28;100.00;102109.19;4992340;28;20058;-79
2022/03/28 06:38:55;;;;;;;38.05;11.85;;;;;;;6.41;100.00;102099.56;4980856;28;20416;-77
2022/03/28 06:41:21;;;;;;;38.22;11.98;;;;;;;6.58;100.00;102097.97;4972969;28;20034;-77
2022/03/28 06:43:47;;;;;;;43.10;11.48;;;;;;;6.71;100.00;102104.66;4976223;28;20043;-77
2022/03/28 06:46:13;;;;;;;47.55;12.52;;;;;;;6.79;100.00;102109.78;4986274;28;20057;-77
2022/03/28 06:48:39;;;;;;;40.35;12.50;;;;;;;6.73;100.00;102099.16;4997618;28;20030;-77
2022/03/28 06:51:06;;;;;;;46.72;12.85;;;;;;;6.95;100.00;102096.38;4979923;28;20050;-78
2022/03/28 06:53:31;;;;;;;42.17;12.70;;;;;;;7.25;100.00;102109.59;4985452;28;20164;-78
2022/03/28 06:55:57;;;;;;;53.33;13.68;;;;;;;7.26;100.00;102106.78;4993229;28;20117;-77
2022/03/28 06:58:22;;;;;;;40.03;11.68;;;;;;;7.36;100.00;102105.44;4993903;28;20048;-79
2022/03/28 07:00:48;;;;;;;51.85;13.40;;;;;;;7.23;100.00;102096.06;4991302;28;20030;-78
2022/03/28 07:03:14;;;;;;;38.22;11.23;;;;;;;7.48;100.00;102103.97;4989576;28;20030;-78
2022/03/28 07:05:39;;;;;;;42.90;12.85;;;;;;;7.74;100.00;102101.91;4981172;28;20038;-78
2022/03/28 07:08:05;;;;;;;40.80;14.18;;;;;;;7.72;100.00;102096.50;4985213;28;20105;-78
2022/03/28 07:10:30;;;;;;;37.63;13.18;;;;;;;7.85;100.00;102096.78;4984219;28;20368;-77
2022/03/28 07:12:56;;;;;;;49.50;13.02;;;;;;;7.84;100.00;102100.50;4975374;28;20440;-78
2022/03/28 07:15:21;;;;;;;44.10;13.68;;;;;;;8.05;100.00;102095.84;4985941;28;20500;-78
2022/03/28 07:17:51;;;;;;;41.42;13.55;;;;;;;8.09;100.00;102091.13;4985780;28;20046;-78
2022/03/28 07:20:17;;;;;;;43.88;12.23;;;;;;;8.14;100.00;102088.19;4981967;28;20069;-78
2022/03/28 07:22:42;;;;;;;48.65;15.00;;;;;;;8.38;100.00;102091.50;4979922;28;20475;-77
2022/03/28 07:25:09;;;;;;;42.15;14.32;;;;;;;8.41;100.00;102083.19;5009405;28;20441;-77
2022/03/28 07:27:38;;;;;;;49.47;14.93;;;;;;;8.50;100.00;102084.59;4997708;28;20044;-77
2022/03/28 07:30:05;;;;;;;52.72;15.40;;;;;;;8.72;100.00;102087.13;4988077;28;20037;-78
2022/03/28 07:32:31;;;;;;;57.85;15.70;;;;;;;8.75;100.00;102078.78;4986227;28;20061;-77
2022/03/28 07:34:56;;;;;;;53.67;15.40;;;;;;;8.68;100.00;102078.19;5001594;28;20069;-78
2022/03/28 07:37:22;;;;;;;61.22;15.98;;;;;;;8.72;100.00;102082.53;5000723;28;20085;-78
2022/03/28 07:39:48;;;;;;;53.33;15.57;;;;;;;8.94;100.00;102074.13;4987058;28;20050;-78
2022/03/28 07:42:13;;;;;;;40.22;14.13;;;;;;;9.61;100.00;102073.25;4992891;28;20370;-78
2022/03/28 07:44:41;;;;;;;45.83;15.23;;;;;;;9.43;100.00;102069.69;5008465;28;20473;-77
2022/03/28 07:47:08;;;;;;;43.53;15.75;;;;;;;9.63;100.00;102074.09;5002399;28;20038;-77
2022/03/28 07:49:35;;;;;;;47.13;15.95;;;;;;;9.68;100.00;102071.97;4978826;28;20085;-76
2022/03/28 07:52:01;;;;;;;60.63;16.80;;;;;;;9.48;100.00;102056.69;4972583;28;20045;-77
2022/03/28 07:54:27;;;;;;;44.42;15.40;;;;;;;9.83;100.00;102062.03;5004768;28;20371;-77
2022/03/28 07:56:52;;;;;;;52.17;15.93;;;;;;;11.17;100.00;102057.75;5004016;28;20042;-77
2022/03/28 07:59:18;;;;;;;46.50;15.30;;;;;;;10.57;100.00;102055.91;4982350;28;20041;-77
2022/03/28 08:01:43;;;;;;;49.53;16.83;;;;;;;9.99;100.00;102054.72;4985150;28;20366;-77
2022/03/28 08:04:09;;;;;;;59.92;17.17;;;;;;;9.92;100.00;102059.66;5005964;28;20028;-77
2022/03/28 08:06:34;;;;;;;45.80;15.50;;;;;;;10.58;100.00;102051.31;5009439;28;20034;-77
2022/03/28 08:09:00;;;;;;;50.70;17.77;;;;;;;10.78;100.00;102045.50;4990047;28;20076;-77
2022/03/28 08:11:25;;;;;;;44.58;16.45;;;;;;;11.57;100.00;102041.47;4999559;28;20065;-77
2022/03/28 08:13:51;;;;;;;45.05;16.58;;;;;;;11.08;100.00;102038.25;4978142;28;20088;-77
2022/03/28 08:16:17;;;;;;;46.95;16.80;;;;;;;11.93;100.00;102036.50;4979440;28;20038;-77
2022/03/28 08:18:42;;;;;;;46.78;17.65;;;;;;;11.72;100.00;102036.00;5005326;28;20030;-78
2022/03/28 08:21:11;;;;;;;50.08;18.50;;;;;;;11.72;100.00;102023.19;4968500;28;20054;-77
2022/03/28 08:23:37;;;;;;;48.00;17.20;;;;;;;11.95;100.00;102026.28;4984695;28;20037;-77
2022/03/28 08:26:04;;;;;;;71.50;17.05;;;;;;;11.66;100.00;102039.13;4979793;28;20043;-77
2022/03/28 08:28:30;;;;;;;48.00;16.75;;;;;;;11.54;100.00;102035.31;4980089;28;20035;-80
2022/03/28 08:30:55;;;;;;;51.10;17.02;;;;;;;12.06;100.00;102034.69;4974590;28;20030;-77
2022/03/28 08:33:21;;;;;;;50.00;17.40;;;;;;;12.19;100.00;102033.88;4963076;28;20434;-76
2022/03/28 08:35:46;;;;;;;43.58;18.83;;;;;;;12.05;100.00;102024.72;4984364;28;20566;-77
2022/03/28 08:38:11;;;;;;;54.72;18.50;;;;;;;12.78;100.00;102020.66;4983280;28;20589;-76
2022/03/28 08:40:37;;;;;;;53.30;19.80;;;;;;;12.71;100.00;102012.94;4992086;28;20034;-76
2022/03/28 08:43:04;;;;;;;57.10;19.60;;;;;;;12.53;100.00;102029.72;4980580;28;20039;-76
2022/03/28 08:45:30;;;;;;;49.10;18.90;;;;;;;13.65;100.00;102023.66;4998240;28;20102;-76
2022/03/28 08:47:56;;;;;;;43.20;18.05;;;;;;;13.59;100.00;102021.34;4980615;28;20051;-78
2022/03/28 08:50:22;;;;;;;40.85;18.65;;;;;;;13.49;100.00;102018.41;4971371;28;20041;-77
2022/03/28 08:52:47;;;;;;;63.80;19.70;;;;;;;13.67;100.00;102016.16;4988116;28;20039;-77
2022/03/28 08:55:14;;;;;;;49.03;19.90;;;;;;;13.88;100.00;102001.81;4976872;28;20040;-77
2022/03/28 08:57:40;;;;;;;41.17;19.23;;;;;;;14.01;100.00;102004.53;4978440;28;20062;-77
2022/03/28 09:00:08;;;;;;;43.85;17.88;;;;;;;14.02;99.52;102004.41;4985362;28;20034;-76
2022/03/28 09:02:46;;;;;;;54.28;18.25;;;;;;;14.53;97.37;102004.16;4985949;28;20097;-77
2022/03/28 09:05:16;;;;;;;45.05;17.45;;;;;;;15.27;91.93;102000.25;4981231;28;20442;-77
2022/03/28 09:07:42;;;;;;;48.60;19.45;;;;;;;14.65;94.58;101998.75;4984138;28;20038;-77
2022/03/28 09:10:18;;;;;;;45.78;19.17;;;;;;;14.12;98.94;101996.34;4977554;28;20200;-76
2022/03/28 09:13:00;;;;;;;47.97;18.98;;;;;;;14.93;95.04;101999.31;4985173;28;20118;-77
2022/03/28 09:15:26;;;;;;;60.25;21.35;;;;;;;14.67;94.74;101981.06;4978642;28;20137;-78
2022/03/28 09:17:56;;;;;;;47.22;20.10;;;;;;;15.34;90.73;101995.13;4978373;28;20085;-77
2022/03/28 09:20:23;;;;;;;47.30;20.60;;;;;;;14.53;95.68;101986.78;4987703;28;20379;-76
2022/03/28 09:22:49;;;;;;;49.25;22.35;;;;;;;14.89;95.56;101984.91;4975335;28;20062;-76
2022/03/28 09:25:17;;;;;;;52.15;20.75;;;;;;;15.14;94.39;101982.94;4981107;28;20422;-76
2022/03/28 09:27:44;;;;;;;55.50;20.63;;;;;;;15.23;93.17;101991.34;4988056;28;20483;-76
2022/03/28 09:30:19;;;;;;;52.58;21.38;;;;;;;15.01;92.30;101996.84;4981661;28;20581;-77
2022/03/28 09:32:52;;;;;;;49.55;20.63;;;;;;;15.42;91.13;101984.34;4997201;28;20034;-76
2022/03/28 09:35:23;;;;;;;46.45;19.98;;;;;;;15.27;92.43;101986.47;4990887;28;20125;-76
2022/03/28 09:37:48;;;;;;;58.30;22.35;;;;;;;15.26;92.53;101992.97;4990706;28;20046;-76
2022/03/28 09:40:21;;;;;;;52.20;23.48;;;;;;;15.43;90.98;101984.22;4964706;28;20050;-76
2022/03/28 09:42:50;;;;;;;48.47;22.73;;;;;;;15.82;87.96;101983.81;4980130;28;20492;-76
2022/03/28 09:45:20;;;;;;;54.08;22.70;;;;;;;15.63;89.87;101979.81;4996737;28;20036;-76
2022/03/28 09:48:06;;;;;;;48.50;22.60;;;;;;;16.06;86.75;101978.13;4990838;28;20501;-76
2022/03/28 09:50:33;;;;;;;46.97;22.52;;;;;;;16.29;85.37;101978.06;4975778;28;20042;-76
2022/03/28 09:53:09;;;;;;;46.47;23.23;;;;;;;15.58;87.43;101967.41;4984691;28;20117;-76
2022/03/28 09:55:58;;;;;;;46.55;21.90;;;;;;;16.02;84.88;101964.69;4991454;28;20035;-76
2022/03/28 09:58:48;;;;;;;51.22;21.38;;;;;;;15.56;88.71;101955.59;4977350;28;20045;-77
2022/03/28 10:01:23;;;;;;;42.63;20.05;;;;;;;15.65;86.75;101956.72;4991419;28;20509;-77
2022/03/28 10:04:01;;;;;;;53.08;21.27;;;;;;;15.75;87.75;101958.56;4996209;28;20038;-75
2022/03/28 10:06:28;;;;;;;45.00;21.92;;;;;;;15.98;85.01;101953.03;4976807;28;20041;-76
2022/03/28 10:08:53;;;;;;;44.83;20.63;;;;;;;16.31;84.14;101959.44;4960820;28;20039;-76
2022/03/28 10:11:19;;;;;;;49.50;21.00;;;;;;;15.94;86.63;101952.41;4975507;28;20093;-76
2022/03/28 10:13:46;;;;;;;47.40;21.20;;;;;;;16.51;83.78;101944.78;4981217;28;20023;-76
2022/03/28 10:16:12;;;;;;;42.65;19.70;;;;;;;16.58;85.87;101949.78;4975350;28;20039;-77
2022/03/28 10:18:40;;;;;;;57.38;20.23;;;;;;;16.35;85.31;101953.53;4976757;28;20350;-76
2022/03/28 10:21:15;;;;;;;48.88;20.13;;;;;;;16.22;85.78;101949.22;4985208;28;20383;-76
2022/03/28 10:23:52;;;;;;;48.95;20.42;;;;;;;16.33;85.01;101947.28;5013747;28;20042;-76
2022/03/28 10:26:24;;;;;;;48.00;22.15;;;;;;;16.72;77.44;101936.50;5012623;28;20169;-76
2022/03/28 10:29:07;;;;;;;45.35;20.17;;;;;;;16.40;81.96;101924.59;5001219;28;20060;-76
2022/03/28 10:31:34;;;;;;;47.08;20.92;;;;;;;16.71;81.65;101918.16;4981626;28;20033;-76
2022/03/28 10:34:01;;;;;;;47.42;21.90;;;;;;;16.50;81.89;101925.56;4998148;28;20486;-76
2022/03/28 10:36:32;;;;;;;43.25;21.83;;;;;;;17.54;75.33;101929.22;5012011;28;20038;-76
2022/03/28 10:39:30;;;;;;;41.72;20.80;;;;;;;16.85;77.49;101916.09;4995676;28;20038;-76
2022/03/28 10:42:07;;;;;;;49.80;22.33;;;;;;;16.65;77.79;101907.63;4978660;28;20034;-76
2022/03/28 10:44:44;;;;;;;48.97;22.08;;;;;;;16.86;78.05;101910.41;5011872;28;20080;-77
2022/03/28 10:47:09;;;;;;;48.38;22.20;;;;;;;16.99;79.25;101901.03;4994146;28;20026;-76
2022/03/28 10:49:35;;;;;;;49.10;22.17;;;;;;;17.14;80.88;101902.41;4978242;28;20505;-76
2022/03/28 10:52:02;;;;;;;48.80;21.88;;;;;;;17.34;77.36;101895.03;4995154;28;20038;-76
2022/03/28 10:54:37;;;;;;;45.00;21.38;;;;;;;17.33;77.26;101901.63;4995244;28;20034;-77
2022/03/28 10:57:04;;;;;;;48.83;22.58;;;;;;;17.14;77.01;101887.69;4962194;28;20053;-77
2022/03/28 10:59:30;;;;;;;48.70;22.73;;;;;;;17.27;78.44;101891.97;4978163;28;20092;-76
2022/03/28 11:01:56;;;;;;;43.78;22.17;;;;;;;17.21;77.72;101886.13;4995580;28;20037;-76
2022/03/28 11:04:23;;;;;;;47.78;21.83;;;;;;;17.44;75.79;101884.00;4977622;28;20038;-76
2022/03/28 11:07:04;;;;;;;48.70;21.73;;;;;;;18.06;72.43;101884.72;4985853;28;20045;-76
2022/03/28 11:09:51;;;;;;;50.03;22.48;;;;;;;17.30;77.19;101884.38;5013296;28;20101;-77
2022/03/28 11:12:18;;;;;;;50.63;23.10;;;;;;;17.12;78.37;101884.16;4978330;28;20052;-79